sim
Sign-in with your pilot id or email,
or register
Callsign
Passwort

Schedule Details

Flight Number: RYR5071
Departure: Hamburg Airport (EDDH) at 05:40
Arrival: Thessaloniki International Airport (LGTS) at 08:30
Route: Ryanair Passenger Schedule. Enter filed route here before submitting Pirep.

Weather Information
Getting current METAR information for EDDH 211150Z 26012KT 220V290 9999 OVC013 09/06 Q1022 NOSIG
Getting current METAR information for LGTS 211150Z 34014KT CAVOK 16/00 Q1023 NOSIG

Schedule Frequency

Route Map